This is the latest recevied weather packets stored in our database for station/object CYYG. If no packets are shown the sender has not sent any weather packets the latest 1 day(s).
| Time | Temp. | Humidity | Pressure | Rain* | Wind** | Luminosity | Snow |
|---|---|---|---|---|---|---|---|
| 1778107401 | 16.67° C | 63% | 1011.9 hPa | - | - | - | - |
| 1778106205 | 16.67° C | 63% | 1011.9 hPa | - | - | - | - |
| 1778104406 | 16.67° C | 63% | 1011.5 hPa | - | - | - | - |
| 1778103801 | 16.67° C | 63% | 1011.5 hPa | - | - | - | - |
| 1778100800 | 17.78° C | 63% | 1011.5 hPa | - | - | - | - |
| 1778099003 | 17.78° C | 63% | 1011.5 hPa | - | - | - | - |
| 1778097204 | 20° C | 60% | 1012.2 hPa | - | - | - | - |
| 1778096602 | 20° C | 60% | 1012.2 hPa | - | - | - | - |
| 1778094801 | 20° C | 60% | 1012.2 hPa | - | - | - | - |
| 1778093603 | 18.89° C | 63% | 1012.2 hPa | - | - | - | - |
| 1778092405 | 18.89° C | 63% | 1012.2 hPa | - | - | - | - |
| 1778091203 | 18.89° C | 63% | 1012.2 hPa | - | - | - | - |
| 1778087605 | 20.56° C | 56% | 1012.2 hPa | - | - | - | - |
| 1778079804 | 15° C | 77% | 1013.2 hPa | - | - | - | - |
| 1778078603 | 15° C | 77% | 1013.2 hPa | - | - | - | - |
| 1778076800 | 15° C | 77% | 1013.2 hPa | - | - | - | - |
| 1778076200 | 15° C | 82% | 1012.9 hPa | - | - | - | - |
| 1778075601 | 15° C | 82% | 1012.9 hPa | - | - | - | - |
| 1778072603 | 13.89° C | 82% | 1009.8 hPa | - | - | - | - |
| 1778071999 | 13.89° C | 82% | 1009.8 hPa | - | - | - | - |
| 1778071402 | 13.89° C | 82% | 1009.8 hPa | - | - | - | - |
| 1778070202 | 13.89° C | 82% | 1009.8 hPa | - | - | - | - |
| 1778069601 | 13.89° C | 82% | 1009.8 hPa | - | - | - | - |
| 1778067199 | 12.78° C | 87% | 1009.5 hPa | - | - | - | - |
| 1778066604 | 12.78° C | 87% | 1009.5 hPa | - | - | - | - |
* Rain since midnight (hover to see other rain measurements)
** Current wind speed in m/s (hover to see current wind gust speed)